Tiempo atmosférico en la estación meteorológica de Ribadeo, Lugo (43 m.)



Fecha
DESCASC
Temp. máxima en grados centígrados (hora)
DESCASC
Temp. mínima en grados centígrados (hora)
DESCASC
Temp. media en grados centígrados
DESCASC
Racha de viento máxima en m/sg (hora)
DESCASC
Velocidad máxima media en intervalos de 10 minutos(hora)
DESCASC
Precipitaciones diarias en mm
DESCASC
Precipitaciones de 00:00 a 06:00 en mm
DESCASC
Precipitaciones de 06:00 a 12:00 en mm
DESCASC
Precipitaciones de 12:00 a 18:00 en mm
DESCASC
Precipitaciones de 18:00 a 24:00 en mm
DESCASC
29-10-2020 20.4 (15:00) 10.1 (23:40) 15.3 8.33 (03:50) 5.28 (02:50) 0 0 0 0 0
28-10-2020 19 (14:40) 12.1 (23:50) 15.6 10 (12:20) 6.39 (13:30) 0.2 0.2 0 0 0
27-10-2020 17.9 (15:30) 12.7 (00:00) 15.3 21.67 (12:30) 13.06 (11:00) 1.8 0 0.2 0 1.6
26-10-2020 16.1 (13:20) 8.9 (00:00) 12.5 11.94 (05:30) 8.33 (03:10) 2 1.4 0.4 0.2 0
25-10-2020 16.9 (01:00) 9.6 (00:00) 13.3 16.11 (02:50) 8.61 (00:20) 10.8 8.4 0.4 0.6 1.4
24-10-2020 19.5 (15:30) 15.4 (00:00) 17.4 20.83 (10:00) 10.28 (14:50) 0.2 0 0 0 0.2
23-10-2020 18.4 (15:10) 12.1 (00:00) 15.3 14.72 (23:50) 9.44 (23:50) 4 0 3.8 0.2 0
22-10-2020 20.4 (15:50) 10.2 (00:00) 15.3 9.44 (17:50) 5 (15:20) 0.2 0 0.2 0 0
21-10-2020 20.3 (18:20) 12.2 (00:00) 16.2 11.11 (05:30) 5.83 (05:20) 4.4 2 1.2 0 1.2
20-10-2020 19.1 (00:00) 14.3 (00:00) 16.7 8.33 (09:30) 4.44 (09:20) 5.6 0 0 0.4 5.2
19-10-2020 25.4 (14:20) 12.8 (00:00) 19.1 16.94 (17:00) 9.72 (17:00) 2.2 0 0 2.2 0
18-10-2020 22.4 (14:10) 10.7 (00:00) 16.5 3.89 (14:10) 3.61 (01:00) 0 0 0 0 0
17-10-2020 19.4 (14:40) 10.3 (00:00) 14.8 11.67 (10:30) 6.67 (10:30) 0 0 0 0 0
16-10-2020 16.7 (16:00) 6.6 (00:00) 11.7 6.67 (17:40) 4.72 (17:40) 0 0 0 0 0
15-10-2020 16.4 (15:30) 9.2 (00:00) 12.8 7.22 (17:50) 4.44 (16:40) 10.8 7 3.8 0 0
14-10-2020 16.1 (15:40) 11.4 (00:00) 13.8 8.89 (13:30) 5.28 (13:30) 17.4 5.6 11 0.2 0.6
13-10-2020 17.1 (00:00) 11.8 (00:00) 14.5 10 (17:20) 5.56 (17:20) 8 5 0.6 1.4 1
12-10-2020 17.4 (23:10) 9.9 (00:00) 13.6 8.33 (15:50) 5.83 (16:00) 0.4 0 0 0 0.4
11-10-2020 16.6 (14:50) 13 (00:00) 14.8 8.06 (01:20) 4.72 (01:20) 0 0 0 0 0
10-10-2020 17.8 (15:10) 12.7 (00:00) 15.2 12.22 (01:50) 6.39 (02:30) 5.6 3.8 1.8 0 0
09-10-2020 21.8 (12:40) 12.8 (00:00) 17.3 7.5 (09:40) 5 (09:20) 0 0 0 0 0
08-10-2020 19.3 (14:10) 13.9 (00:00) 16.6 3.89 (15:20) 2.22 (15:20) 0 0 0 0 0
07-10-2020 21.2 (14:20) 16.9 (00:00) 19.1 11.94 (00:20) 7.5 (00:30) 0 0 0 0 0
06-10-2020 23.6 (13:30) 18.2 (00:00) 20.9 13.89 (22:30) 10.56 (23:30) 0 0 0 0 0
05-10-2020 19.9 (13:50) 12.4 (00:00) 16.1 16.39 (20:00) 11.39 (20:00) 0.4 0.4 0 0 0
04-10-2020 16.7 (13:20) 12.8 (00:00) 14.8 14.72 (03:10) 8.61 (00:20) 7 0.6 3.2 3.2 0
03-10-2020 17.5 (15:10) 11.1 (00:00) 14.3 13.89 (00:10) 7.78 (02:10) 9.6 6.4 3.2 0 0
02-10-2020 16.9 (00:50) 9.6 (00:00) 13.3 23.61 (07:40) 9.17 (12:00) 34.2 15 8.6 5 5.6
01-10-2020 19.5 (16:00) 13.8 (00:00) 16.7 21.67 (19:00) 11.67 (00:40) 9.2 4.8 0.4 0 4

Gráficas

Temp. máximas Temp. mínimas Temp. medias Precipitaciones Rachas de viento máximas Velocidades máximas media en intervalos de 10 minutos

Datos horarios

Fecha y hora oficial Temperatura (ºC) Velocidad del viento (km/h) Dirección del viento Racha (km/h) Dirección de racha Precipitación (mm) Presión (hPa) Tendencia (hPa) Humedad (%)
2020-10-30 23:00:00 17.3 11 Sudoeste 19 Sudoeste 0 -- -- 75
2020-10-30 22:00:00 16.6 5 Sudoeste 15 Sudoeste 0 -- -- 76
2020-10-30 21:00:00 13.4 2 Sur 12 Sudeste 0 -- -- 89
2020-10-30 20:00:00 14.4 8 Oeste 10 Oeste 0 -- -- 86
2020-10-30 19:00:00 14.2 4 Sudoeste 10 Sudeste 0 -- -- 85
2020-10-30 18:00:00 16.9 6 Sudeste 12 Este 0 -- -- 73
2020-10-30 17:00:00 19.6 8 Este 16 Este 0 -- -- 61
2020-10-30 16:00:00 19.6 10 Este 15 Este 0 -- -- 64
2020-10-30 15:00:00 19 11 Nordeste 18 Este 0 -- -- 62
2020-10-30 14:00:00 18.6 8 Nordeste 14 Nordeste 0 -- -- 68
2020-10-30 13:00:00 19 7 Nordeste 14 Nordeste 0 -- -- 72
2020-10-30 12:00:00 19 4 Norte 11 Sudoeste 0 -- -- 72
2020-10-30 11:00:00 16.7 2 Noroeste 18 Este 0 -- -- 74
2020-10-30 10:00:00 13.8 10 Este 15 Este 0 -- -- 78
2020-10-30 09:00:00 11 13 Este 16 Este 0 -- -- 87
2020-10-30 08:00:00 10.1 9 Sur 17 Sudeste 0 -- -- 86
2020-10-30 07:00:00 11.2 14 Sur 22 Sur 0 -- -- 83
2020-10-30 06:00:00 11.9 12 Sur 17 Sur 0 -- -- 81
2020-10-30 05:00:00 13 11 Sudoeste 22 Sudoeste 0 -- -- 77
2020-10-30 04:00:00 11.7 12 Sur 21 Sudoeste 0 -- -- 84
2020-10-30 03:00:00 12.5 8 Sur 17 Sudoeste 0 -- -- 80
2020-10-30 02:00:00 11.2 13 Sur 15 Sur 0 -- -- 88
2020-10-30 01:00:00 10.5 8 Sudeste 12 Sudeste 0 -- -- 92
2020-10-30 00:00:00 10.3 7 Sur 9 Sur 0 -- -- 93
2020-10-29 23:00:00 10.2 3 Sur 10 Sur 0 -- -- 92
2020-10-29 22:00:00 10.4 5 Sur 7 Sur 0 -- -- 92
2020-10-29 21:00:00 11 0 Calma 9 Sur 0 -- -- 90
2020-10-29 20:00:00 11.4 4 Sur 10 Sudeste 0 -- -- 88
2020-10-29 19:00:00 12.8 5 Sur 8 Sur 0 -- -- 84
2020-10-29 18:00:00 16.3 0 Calma 10 Norte 0 -- -- 74
2020-10-29 17:00:00 17.1 6 Nordeste 13 Nordeste 0 -- -- 72
2020-10-29 16:00:00 19 6 Noroeste 24 Oeste 0 -- -- 66
2020-10-29 15:00:00 20.4 11 Oeste 20 Oeste 0 -- -- 56
2020-10-29 14:00:00 19.8 10 Sudoeste 26 Oeste 0 -- -- 58
2020-10-29 13:00:00 19.3 10 Sudoeste 19 Sur 0 -- -- 60
2020-10-29 12:00:00 18 9 Sur 14 Sudeste 0 -- -- 62
2020-10-29 11:00:00 16.6 5 Oeste 17 Nordeste 0 -- -- 65
2020-10-29 10:00:00 15.6 12 Sur 22 Sur 0 -- -- 67
2020-10-29 09:00:00 14.1 13 Sur 28 Sur 0 -- -- 70
2020-10-29 08:00:00 13 5 Sudoeste 26 Sur 0 -- -- 73
2020-10-29 07:00:00 13.9 17 Sur 30 Sudoeste 0 -- -- 71
2020-10-29 06:00:00 13.8 12 Sur 23 Sudoeste 0 -- -- 74
2020-10-29 05:00:00 13.6 8 Sudoeste 30 Sudoeste 0 -- -- 77
2020-10-29 04:00:00 14 18 Sur 30 Sur 0 -- -- 76
2020-10-29 03:00:00 14.6 18 Sur 29 Sur 0 -- -- 72
2020-10-29 02:00:00 14.5 14 Sur 23 Sur 0 -- -- 72
2020-10-29 01:00:00 14.8 8 Sudoeste 18 Sudoeste 0 -- -- 73
2020-10-29 00:00:00 12.1 5 Sur 15 Sudoeste 0 -- -- 83
2020-10-28 23:00:00 13.7 5 Sur 20 Oeste 0 -- -- 76
2020-10-28 22:00:00 15.1 7 Sudoeste 20 Sudoeste 0 -- -- 72
2020-10-28 21:00:00 16.1 9 Sudoeste 19 Sudoeste 0 -- -- 70
2020-10-28 20:00:00 16.5 12 Sudoeste 26 Sudoeste 0 -- -- 67
2020-10-28 19:00:00 16.7 15 Sur 28 Sur 0 -- -- 66
2020-10-28 18:00:00 16.8 14 Sur 32 Sudoeste 0 -- -- 69
2020-10-28 17:00:00 18 15 Sur 28 Sur 0 -- -- 64
2020-10-28 16:00:00 18.7 13 Sudoeste 30 Sudoeste 0 -- -- 63
2020-10-28 15:00:00 18.8 8 Sudoeste 19 Sudoeste 0 -- -- 64
2020-10-28 14:00:00 18.4 10 Sudoeste 35 Sudoeste 0 -- -- 64
2020-10-28 13:00:00 18 17 Sudoeste 36 Sudoeste 0 -- -- 69
2020-10-28 12:00:00 16.9 16 Sudoeste 31 Sudoeste 0 -- -- 67
2020-10-28 11:00:00 16.2 12 Sudoeste 33 Sur 0 -- -- 67
2020-10-28 10:00:00 15.5 18 Sur 31 Sur 0 -- -- 68
2020-10-28 09:00:00 14.5 15 Sur 24 Sur 0 -- -- 71
2020-10-28 08:00:00 14.2 12 Sur 24 Sur 0 -- -- 72
2020-10-28 07:00:00 14.1 13 Sudoeste 31 Sudoeste 0 -- -- 73
2020-10-28 06:00:00 14.3 11 Sudoeste 23 Sudoeste 0 -- -- 75
2020-10-28 05:00:00 14.3 12 Sur 28 Sudoeste 0.2 -- -- 76
2020-10-28 04:00:00 14.1 14 Sur 27 Oeste 0 -- -- 77
2020-10-28 03:00:00 14.3 15 Sudoeste 30 Sudoeste 0 -- -- 76
2020-10-28 02:00:00 14.8 17 Sudoeste 32 Oeste 0 -- -- 79
2020-10-28 01:00:00 14.4 11 Sudoeste 22 Oeste 0 -- -- 86
2020-10-28 00:00:00 14.4 16 Sur 23 Sur 0 -- -- 91
2020-10-27 23:00:00 14.4 3 Norte 15 Oeste 0.6 -- -- 94
2020-10-27 22:00:00 14.9 3 Noroeste 17 Sudoeste 0.2 -- -- 90
2020-10-27 21:00:00 15.2 10 Sur 21 Sur 0 -- -- 88
2020-10-27 20:00:00 15.2 15 Sur 23 Sur 0.2 -- -- 92
2020-10-27 19:00:00 15.2 13 Oeste 38 Oeste 0.6 -- -- 92
2020-10-27 18:00:00 17 22 Oeste 57 Sudoeste 0 -- -- 77
2020-10-27 17:00:00 17.3 33 Sur 64 Sudoeste 0 -- -- 74
2020-10-27 16:00:00 17.2 35 Sur 72 Sudoeste 0 -- -- 74
2020-10-27 15:00:00 17.6 40 Sur 78 Sudoeste 0 -- -- 70
2020-10-27 14:00:00 17.1 40 Sur 73 Sudoeste 0 -- -- 71
2020-10-27 13:00:00 17.5 45 Sur 78 Sudoeste 0 -- -- 68
2020-10-27 12:00:00 17.4 39 Sur 72 Sudoeste 0 -- -- 68
2020-10-27 11:00:00 17 47 Sur 75 Sur 0 -- -- 68
2020-10-27 10:00:00 15.6 43 Sur 76 Sur 0 -- -- 70
2020-10-27 09:00:00 14.7 46 Sur 75 Sudoeste 0.2 -- -- 72
2020-10-27 08:00:00 14.7 35 Sur 76 Sur 0 -- -- 70
2020-10-27 07:00:00 14.5 35 Sur 71 Sudoeste 0 -- -- 69
2020-10-27 06:00:00 14.1 33 Sur 73 Sur 0 -- -- 71
2020-10-27 05:00:00 14 21 Sudoeste 46 Sudoeste 0 -- -- 71
2020-10-27 04:00:00 13.6 12 Sudoeste 38 Sudoeste 0 -- -- 73
2020-10-27 03:00:00 13.6 13 Sudoeste 34 Oeste 0 -- -- 73
2020-10-27 02:00:00 13.3 13 Sudoeste 34 Sudoeste 0 -- -- 74
2020-10-27 01:00:00 13.1 18 Sur 38 Sur 0 -- -- 75
2020-10-27 00:00:00 12.7 11 Sudoeste 32 Sudoeste 0 -- -- 76
2020-10-26 23:00:00 12.5 18 Sur 28 Sur 0 -- -- 76
2020-10-26 22:00:00 12.2 13 Sur 28 Sudoeste 0 -- -- 77
2020-10-26 21:00:00 12.3 17 Sur 31 Sudoeste 0 -- -- 76
2020-10-26 20:00:00 12.6 19 Sur 30 Sur 0 -- -- 75
2020-10-26 19:00:00 12.8 13 Sur 28 Sudoeste 0 -- -- 72
2020-10-26 18:00:00 13.6 17 Sudoeste 38 Sudoeste 0 -- -- 66
2020-10-26 17:00:00 14.3 18 Oeste 33 Oeste 0 -- -- 65
2020-10-26 16:00:00 13.9 23 Oeste 37 Oeste 0 -- -- 71
2020-10-26 15:00:00 15.5 12 Sudoeste 31 Oeste 0 -- -- 63
2020-10-26 14:00:00 13.8 14 Sudoeste 38 Oeste 0.2 -- -- 73
2020-10-26 13:00:00 15.6 17 Sudoeste 34 Oeste 0 -- -- 62
2020-10-26 12:00:00 14 13 Sudoeste 40 Sur 0 -- -- 72
2020-10-26 11:00:00 12 21 Sur 42 Sur 0 -- -- 78
2020-10-26 10:00:00 10.6 24 Sur 37 Sur 0.4 -- -- 81
2020-10-26 09:00:00 9.9 25 Sur 41 Sur 0 -- -- 82
2020-10-26 08:00:00 9.3 26 Sur 40 Sur 0 -- -- 82
2020-10-26 07:00:00 9.5 22 Sur 39 Sur 0 -- -- 79
2020-10-26 06:00:00 9.2 22 Sur 43 Sur 0 -- -- 79
2020-10-26 05:00:00 9.2 26 Sur 41 Sur 0 -- -- 79
2020-10-26 04:00:00 9 25 Sur 40 Sur 0.2 -- -- 83
2020-10-26 03:00:00 9.2 22 Sur 40 Sur 0.4 -- -- 82
2020-10-26 02:00:00 9.3 17 Sur 40 Sudoeste 0.8 -- -- 84
2020-10-26 01:00:00 9.4 27 Sur 41 Sur 0 -- -- 82
2020-10-26 00:00:00 9.6 18 Sur 32 Sur 1.2 -- -- 84
2020-10-25 23:00:00 10.2 19 Sur 36 Sudoeste 0 -- -- 80
2020-10-25 22:00:00 10.9 19 Sudoeste 37 Sudoeste 0.2 -- -- 76
2020-10-25 21:00:00 11 17 Sur 36 Sur 0 -- -- 73
2020-10-25 20:00:00 11.1 19 Sur 32 Sur 0 -- -- 78
2020-10-25 19:00:00 11.6 19 Sudoeste 37 Sur 0 -- -- 74
2020-10-25 18:00:00 12.3 18 Sur 31 Sudoeste 0 -- -- 71
2020-10-25 17:00:00 12.8 22 Sudoeste 41 Sudoeste 0 -- -- 66
2020-10-25 16:00:00 12.8 21 Oeste 44 Oeste 0 -- -- 68
2020-10-25 15:00:00 14 17 Sudoeste 37 Oeste 0.4 -- -- 74
2020-10-25 14:00:00 15.2 11 Sudoeste 36 Oeste 0.2 -- -- 68
2020-10-25 13:00:00 13.4 21 Oeste 42 Sudoeste 0 -- -- 73
2020-10-25 12:00:00 14.8 14 Sudoeste 42 Sur 0 -- -- 65
2020-10-25 11:00:00 13.8 26 Sudoeste 49 Oeste 0.2 -- -- 66
2020-10-25 10:00:00 13.9 18 Sudoeste 40 Oeste 0.2 -- -- 77
2020-10-25 09:00:00 14.9 21 Sudoeste 37 Sudoeste 0 -- -- 71
2020-10-25 08:00:00 14.4 15 Sudoeste 30 Sudoeste 0 -- -- 74
2020-10-25 07:00:00 14.8 22 Sudoeste 39 Sudoeste 0 -- -- 73
2020-10-25 06:00:00 14.5 13 Sudoeste 27 Sudoeste 0 -- -- 77
2020-10-25 05:00:00 14.1 14 Sudoeste 36 Sudoeste 0 -- -- 82
2020-10-25 04:00:00 14 26 Oeste 50 Oeste 1.6 -- -- 84
2020-10-25 03:00:00 15.5 20 Oeste 47 Oeste 3 -- -- 85
2020-10-25 02:00:00 15.9 20 Oeste 58 Oeste 2 -- -- 88
2020-10-25 01:00:00 16.9 28 Sudoeste 57 Sur 0.6 -- -- 79
2020-10-25 00:00:00 16.7 35 Sur 59 Sudoeste 0.2 -- -- 82
2020-10-24 23:00:00 17.7 27 Sudoeste 65 Sudoeste 0 -- -- 74
2020-10-24 22:00:00 17.7 25 Sudoeste 64 Oeste 0 -- -- 73
2020-10-24 21:00:00 18.5 27 Sudoeste 60 Sudoeste 0 -- -- 67
2020-10-24 20:00:00 18.6 21 Sudoeste 59 Sudoeste 0 -- -- 64
2020-10-24 19:00:00 18.2 23 Sur 57 Sudoeste 0 -- -- 68
2020-10-24 18:00:00 18.7 19 Sudoeste 55 Sur 0 -- -- 69
2020-10-24 17:00:00 19.4 27 Sur 60 Sur 0 -- -- 65
2020-10-24 16:00:00 19.2 30 Sudoeste 67 Sudoeste 0 -- -- 65
2020-10-24 15:00:00 18.7 28 Sur 66 Sur 0 -- -- 64
2020-10-24 14:00:00 18.5 37 Sudoeste 63 Sudoeste 0 -- -- 65
2020-10-24 13:00:00 18.6 30 Sudoeste 67 Sur 0 -- -- 65
2020-10-24 12:00:00 18.3 27 Sur 62 Sudoeste 0 -- -- 65
2020-10-24 11:00:00 17.3 28 Sudoeste 69 Sudoeste 0 -- -- 67
2020-10-24 10:00:00 16.4 32 Sudoeste 75 Sudoeste 0 -- -- 69
2020-10-24 09:00:00 15.9 22 Sur 51 Sudoeste 0 -- -- 69
2020-10-24 08:00:00 15.6 21 Sudoeste 50 Sur 0 -- -- 69
2020-10-24 07:00:00 15.7 25 Sur 51 Sur 0 -- -- 68
2020-10-24 06:00:00 15.7 25 Sur 49 Sur 0 -- -- 69
2020-10-24 05:00:00 15.6 26 Sur 49 Sur 0 -- -- 68
2020-10-24 04:00:00 15.7 24 Sudoeste 57 Sur 0 -- -- 67
2020-10-24 03:00:00 15.5 29 Sur 60 Sur 0 -- -- 68
2020-10-24 02:00:00 15.5 24 Sur 48 Sur 0 -- -- 66
2020-10-24 01:00:00 15.7 28 Sur 60 Sur 0 -- -- 64
2020-10-24 00:00:00 15.6 28 Sur 53 Sur 0 -- -- 62
2020-10-23 23:00:00 15.5 30 Sur 52 Sur 0 -- -- 63
2020-10-23 22:00:00 15.4 26 Sur 46 Sur 0 -- -- 63
2020-10-23 21:00:00 15.6 24 Sur 48 Sudoeste 0 -- -- 66
2020-10-23 20:00:00 15.8 27 Sur 42 Sur 0 -- -- 66
2020-10-23 19:00:00 16.2 9 Sudoeste 21 Sudoeste 0 -- -- 65
2020-10-23 18:00:00 17.8 12 Sudoeste 32 Sudoeste 0 -- -- 61
2020-10-23 17:00:00 17.9 15 Oeste 32 Sudoeste 0 -- -- 59
2020-10-23 16:00:00 17.9 12 Sudoeste 35 Sudoeste 0 -- -- 60
2020-10-23 15:00:00 18.1 17 Oeste 36 Oeste 0.2 -- -- 60
2020-10-23 14:00:00 16.9 19 Sudoeste 32 Oeste 0 -- -- 62
2020-10-23 13:00:00 16.7 16 Sudoeste 25 Sudoeste 0 -- -- 69
2020-10-23 12:00:00 14.5 12 Sur 23 Sudoeste 0 -- -- 88
2020-10-23 11:00:00 13.6 10 Sur 22 Sur 0 -- -- 88
2020-10-23 10:00:00 12.6 15 Sur 22 Sur 0 -- -- 90
2020-10-23 09:00:00 12.7 10 Sudoeste 33 Sur 2.8 -- -- 90
2020-10-23 08:00:00 13.1 20 Sur 35 Sudoeste 1 -- -- 86
2020-10-23 07:00:00 13.6 18 Sudoeste 36 Sudoeste 0 -- -- 82
2020-10-23 06:00:00 13.8 19 Sur 36 Sudoeste 0 -- -- 77
2020-10-23 05:00:00 14 16 Sudoeste 40 Sudoeste 0 -- -- 75
2020-10-23 04:00:00 13.8 14 Sur 27 Sur 0 -- -- 77
2020-10-23 03:00:00 12.3 3 Este 18 Sur 0 -- -- 80
2020-10-23 02:00:00 13.5 7 Sur 19 Sur 0 -- -- 75
2020-10-23 01:00:00 14.4 8 Sudoeste 20 Sudoeste 0 -- -- 72
2020-10-23 00:00:00 14.8 14 Sur 27 Sur 0 -- -- 71
2020-10-22 23:00:00 14.7 14 Sur 24 Sudoeste 0 -- -- 72
2020-10-22 22:00:00 15.2 5 Sur 24 Sudoeste 0 -- -- 69
2020-10-22 21:00:00 15.5 17 Sur 24 Sur 0 -- -- 68
2020-10-22 20:00:00 16.1 10 Sudoeste 23 Sudoeste 0 -- -- 64
2020-10-22 19:00:00 17.2 12 Sur 19 Sudoeste 0 -- -- 66
2020-10-22 18:00:00 18.4 15 Sudoeste 34 Sudoeste 0 -- -- 56
2020-10-22 17:00:00 20 12 Sudoeste 26 Sudoeste 0 -- -- 56
2020-10-22 16:00:00 20.3 15 Sur 31 Sur 0 -- -- 52
2020-10-22 15:00:00 20.1 16 Sur 32 Sur 0 -- -- 56
2020-10-22 14:00:00 19.9 12 Sur 26 Sur 0 -- -- 60
2020-10-22 13:00:00 18.8 10 Sur 24 Sur 0 -- -- 62
2020-10-22 12:00:00 17.4 8 Oeste 16 Sur 0 -- -- 65
2020-10-22 11:00:00 16.8 7 Sudoeste 15 Sudoeste 0 -- -- 66
2020-10-22 10:00:00 14.5 7 Sur 14 Sur 0 -- -- 70
2020-10-22 09:00:00 11.2 8 Sur 12 Sur 0.2 -- -- 85
2020-10-22 08:00:00 12.3 10 Sur 14 Sur 0 -- -- 77
2020-10-22 07:00:00 12.8 10 Sudoeste 14 Sudoeste 0 -- -- 75
2020-10-22 06:00:00 13.4 12 Sur 18 Sudoeste 0 -- -- 74
2020-10-22 05:00:00 11 7 Sur 13 Sur 0 -- -- 88
2020-10-22 04:00:00 10.2 4 Sur 12 Sur 0 -- -- 92
2020-10-22 03:00:00 11.7 5 Sur 17 Sur 0 -- -- 89
2020-10-22 02:00:00 11.1 7 Sudeste 12 Sudeste 0 -- -- 95
2020-10-22 01:00:00 11.8 4 Sudeste 12 Sur 0 -- -- 96
2020-10-22 00:00:00 12.2 7 Sudeste 11 Sur 0 -- -- 95
2020-10-21 23:00:00 13 5 Sur 10 Sur 0 -- -- 94
2020-10-21 22:00:00 13.9 6 Sudoeste 10 Sudoeste 0 -- -- 94
2020-10-21 21:00:00 14.9 5 Sur 10 Oeste 1.2 -- -- 91
2020-10-21 20:00:00 15.6 6 Oeste 14 Norte 0 -- -- 87
2020-10-21 19:00:00 18.8 6 Sudoeste 13 Sur 0 -- -- 61
2020-10-21 18:00:00 20.1 4 Sudoeste 19 Sur 0 -- -- 61
2020-10-21 17:00:00 19.5 5 Sur 26 Sudoeste 0 -- -- 61
2020-10-21 16:00:00 19.8 13 Sur 30 Sur 0 -- -- 62
2020-10-21 15:00:00 18.7 13 Sudoeste 37 Sudoeste 0 -- -- 62
2020-10-21 14:00:00 18.7 12 Sudoeste 36 Sudoeste 0 -- -- 63
2020-10-21 13:00:00 18 12 Oeste 22 Oeste 0 -- -- 74
2020-10-21 12:00:00 17 4 Oeste 18 Sudoeste 0 -- -- 79
2020-10-21 11:00:00 16 10 Sudeste 19 Sur 0 -- -- 84
2020-10-21 10:00:00 15 9 Sur 20 Sudoeste 0 -- -- 85
2020-10-21 09:00:00 14.4 11 Sur 28 Sudoeste 1.2 -- -- 89
2020-10-21 08:00:00 15.1 16 Oeste 28 Oeste 0 -- -- 86
2020-10-21 07:00:00 15.6 14 Sudoeste 37 Sudoeste 0 -- -- 81
2020-10-21 06:00:00 16.2 18 Sudoeste 40 Sur 0 -- -- 77
2020-10-21 05:00:00 15.9 18 Sudoeste 32 Sudoeste 0 -- -- 80
2020-10-21 04:00:00 15.8 17 Sudoeste 37 Sudoeste 0 -- -- 82
2020-10-21 03:00:00 15.1 16 Sudoeste 33 Sur 0 -- -- 86
2020-10-21 02:00:00 14.6 20 Sur 35 Sur 1 -- -- 92
2020-10-21 01:00:00 14.5 4 Sur 11 Sur 1 -- -- 95
2020-10-21 00:00:00 14.4 5 Sudeste 13 Sur 0.4 -- -- 96
2020-10-20 23:00:00 14.4 6 Sudeste 14 Oeste 0.8 -- -- 95
2020-10-20 22:00:00 14.6 6 Oeste 12 Oeste 0.4 -- -- 94
2020-10-20 21:00:00 15.1 10 Sudeste 14 Sur 2 -- -- 95
2020-10-20 20:00:00 15.5 4 Sur 6 Sur 0.8 -- -- 94
2020-10-20 19:00:00 15.8 4 Sudeste 12 Sudeste 0.8 -- -- 93
2020-10-20 18:00:00 16.6 8 Sur 10 Sur 0.4 -- -- 89
2020-10-20 17:00:00 17.2 6 Este 12 Este 0 -- -- 84
2020-10-20 16:00:00 17.5 8 Este 17 Nordeste 0 -- -- 83
2020-10-20 15:00:00 18.4 5 Este 10 Nordeste 0 -- -- 83
2020-10-20 14:00:00 18 5 Nordeste 13 Este 0 -- -- 81
2020-10-20 13:00:00 18.6 3 Nordeste 8 Sudeste 0 -- -- 77
2020-10-20 12:00:00 17.8 6 Sur 10 Sudeste 0 -- -- 79
2020-10-20 11:00:00 17.4 5 Este 10 Norte 0 -- -- 78
2020-10-20 10:00:00 17.9 4 Noroeste 30 Sudoeste 0 -- -- 72
2020-10-20 09:00:00 18.4 8 Sudoeste 21 Sur 0 -- -- 67
2020-10-20 08:00:00 15.5 6 Sudeste 13 Sur 0 -- -- 82
2020-10-20 07:00:00 15.2 4 Sudoeste 10 Sudeste 0 -- -- 84
2020-10-20 06:00:00 15.4 5 Sudeste 12 Sur 0 -- -- 84
2020-10-20 05:00:00 16.9 3 Este 16 Sur 0 -- -- 76
2020-10-20 04:00:00 18.3 8 Sur 17 Sur 0 -- -- 69
2020-10-20 03:00:00 17.9 6 Sur 14 Sudoeste 0 -- -- 71
2020-10-20 02:00:00 18.8 7 Sur 21 Sudoeste 0 -- -- 67
2020-10-20 01:00:00 18.6 7 Sudoeste 23 Sur 0 -- -- 67
2020-10-20 00:00:00 19.1 12 Sur 30 Sur 0 -- -- 66
2020-10-19 23:00:00 19.2 12 Sur 30 Oeste 0 -- -- 66
2020-10-19 22:00:00 19.1 17 Sudoeste 41 Sudoeste 0 -- -- 66
2020-10-19 21:00:00 19.2 23 Sur 56 Sur 0 -- -- 65
2020-10-19 20:00:00 19.1 21 Sudoeste 49 Sudoeste 0 -- -- 66
2020-10-19 19:00:00 16.9 7 Sudoeste 33 Sur 0 -- -- 77
2020-10-19 18:00:00 16.6 22 Sudoeste 48 Sur 2.2 -- -- 80
2020-10-19 17:00:00 22 35 Sur 61 Sur 0 -- -- 49
2020-10-19 16:00:00 24.2 11 Sur 34 Sur 0 -- -- 36
2020-10-19 15:00:00 25.2 24 Sur 44 Sur 0 -- -- 32
2020-10-19 14:00:00 23.7 10 Sur 24 Sudeste 0 -- -- 39
2020-10-19 13:00:00 21.8 6 Este 14 Este 0 -- -- 52
2020-10-19 12:00:00 18.5 8 Sudeste 15 Este 0 -- -- 63
2020-10-19 11:00:00 16.9 0 Calma 13 Sur 0 -- -- 73
2020-10-19 10:00:00 16.2 11 Sur 15 Sur 0 -- -- 65
2020-10-19 09:00:00 14.3 2 Sudeste 8 Sur 0 -- -- 74
2020-10-19 08:00:00 14.1 6 Sudeste 15 Oeste 0 -- -- 75
2020-10-19 07:00:00 14.4 5 Sudeste 11 Sudeste 0 -- -- 76
2020-10-19 06:00:00 14.1 5 Sur 16 Sur 0 -- -- 78
2020-10-19 05:00:00 13.8 8 Sur 14 Sur 0 -- -- 81
2020-10-19 04:00:00 12.8 5 Sudeste 8 Sudeste 0 -- -- 88
2020-10-19 03:00:00 13.5 3 Sur 6 Sur 0 -- -- 86
2020-10-19 02:00:00 14.1 0 Calma 8 Sudeste 0 -- -- 87
2020-10-19 01:00:00 13.7 2 Sur 6 Sudeste 0 -- -- 90
2020-10-19 00:00:00 14 3 Sur 10 Sur 0 -- -- 88
2020-10-18 23:00:00 14.7 4 Sudoeste 12 Oeste 0 -- -- 89
2020-10-18 22:00:00 14.9 9 Oeste 13 Oeste 0 -- -- 90
2020-10-18 21:00:00 14.6 8 Oeste 10 Oeste 0 -- -- 85
2020-10-18 20:00:00 15.9 3 Sudeste 10 Sudeste 0 -- -- 77
2020-10-18 19:00:00 18.6 4 Este 7 Nordeste 0 -- -- 76
2020-10-18 18:00:00 19.6 6 Este 10 Nordeste 0 -- -- 68
2020-10-18 17:00:00 19.8 4 Nordeste 11 Este 0 -- -- 70
2020-10-18 16:00:00 21 5 Este 9 Este 0 -- -- 67
2020-10-18 15:00:00 21 5 Norte 14 Este 0 -- -- 69
2020-10-18 14:00:00 22.1 9 Este 12 Nordeste 0 -- -- 62
2020-10-18 13:00:00 20.8 4 Nordeste 12 Norte 0 -- -- 73
2020-10-18 12:00:00 19.9 3 Nordeste 8 Oeste 0 -- -- 69
2020-10-18 11:00:00 16.2 6 Oeste 9 Oeste 0 -- -- 86
2020-10-18 10:00:00 13.4 5 Sur 10 Sudeste 0 -- -- 92
2020-10-18 09:00:00 10.7 8 Sudeste 10 Sur 0 -- -- 93
2020-10-18 08:00:00 11 6 Sur 10 Sur 0 -- -- 93
2020-10-18 07:00:00 11.6 3 Sudoeste 12 Sudeste 0 -- -- 93
2020-10-18 06:00:00 11.4 8 Sur 13 Sur 0 -- -- 93
2020-10-18 05:00:00 11.4 7 Sur 11 Sur 0 -- -- 93
2020-10-18 04:00:00 11.5 3 Sudoeste 10 Sur 0 -- -- 93
2020-10-18 03:00:00 11.6 4 Sudeste 6 Sudeste 0 -- -- 91
2020-10-18 02:00:00 11.8 3 Sur 14 Sudeste 0 -- -- 92
2020-10-18 01:00:00 11.9 13 Sudeste 14 Sudeste 0 -- -- 92
2020-10-18 00:00:00 11.9 6 Sudeste 9 Sudeste 0 -- -- 89
2020-10-17 23:00:00 12 3 Sudoeste 7 Oeste 0 -- -- 90
2020-10-17 22:00:00 12.6 4 Sudoeste 10 Sudeste 0 -- -- 88
2020-10-17 21:00:00 13 8 Sudeste 10 Sudeste 0 -- -- 86
2020-10-17 20:00:00 14.2 7 Sudeste 10 Sudeste 0 -- -- 83
2020-10-17 19:00:00 17.4 3 Nordeste 11 Este 0 -- -- 72
2020-10-17 18:00:00 18.1 5 Nordeste 18 Este 0 -- -- 71
2020-10-17 17:00:00 18.5 10 Este 15 Este 0 -- -- 66
2020-10-17 16:00:00 18.3 7 Nordeste 16 Este 0 -- -- 68
2020-10-17 15:00:00 19 9 Sur 16 Oeste 0 -- -- 59
2020-10-17 14:00:00 18.1 9 Sur 20 Sur 0 -- -- 58
2020-10-17 13:00:00 17.1 9 Este 16 Este 0 -- -- 61
2020-10-17 12:00:00 16.8 7 Este 35 Sur 0 -- -- 51
2020-10-17 11:00:00 15.8 21 Sur 42 Sur 0 -- -- 51
2020-10-17 10:00:00 15.2 22 Sur 36 Sur 0 -- -- 54
2020-10-17 09:00:00 14.3 17 Sur 34 Sur 0 -- -- 58
2020-10-17 08:00:00 13.1 18 Sur 32 Sudoeste 0 -- -- 68
2020-10-17 07:00:00 10.9 8 Sur 13 Sur 0 -- -- 81
2020-10-17 06:00:00 10.7 10 Sur 15 Sudoeste 0 -- -- 83
2020-10-17 05:00:00 11.8 7 Sur 16 Sudoeste 0 -- -- 77
2020-10-17 04:00:00 10.3 3 Sudeste 8 Sudeste 0 -- -- 86
2020-10-17 03:00:00 11 3 Sudeste 8 Sur 0 -- -- 85
2020-10-17 02:00:00 10.6 7 Sudeste 12 Sudeste 0 -- -- 92
2020-10-17 01:00:00 10.4 8 Sur 12 Sur 0 -- -- 92
2020-10-17 00:00:00 10.7 9 Sur 11 Sur 0 -- -- 91
2020-10-16 23:00:00 10.5 5 Sur 13 Sur 0 -- -- 90
2020-10-16 22:00:00 11.2 5 Sudoeste 10 Oeste 0 -- -- 90
2020-10-16 21:00:00 10.9 3 Sudoeste 6 Sudoeste 0 -- -- 89
2020-10-16 20:00:00 13 0 Calma 21 Este 0 -- -- 82
2020-10-16 19:00:00 15 13 Este 23 Este 0 -- -- 74
2020-10-16 18:00:00 16 14 Este 24 Nordeste 0 -- -- 67
2020-10-16 17:00:00 16.7 12 Nordeste 21 Nordeste 0 -- -- 64
2020-10-16 16:00:00 16.7 12 Nordeste 18 Este 0 -- -- 60
2020-10-16 15:00:00 15.8 14 Nordeste 19 Este 0 -- -- 63
2020-10-16 14:00:00 16.1 9 Este 14 Este 0 -- -- 58
2020-10-16 13:00:00 16.4 3 Este 10 Sudeste 0 -- -- 56
2020-10-16 12:00:00 15 3 Sudeste 8 Sur 0 -- -- 57
2020-10-16 11:00:00 12.7 2 Sudeste 8 Sudeste 0 -- -- 77
2020-10-16 10:00:00 9.5 5 Sudeste 10 Sudeste 0 -- -- 86
2020-10-16 09:00:00 6.7 9 Sur 12 Sudeste 0 -- -- 92
2020-10-16 08:00:00 6.9 0 Calma 9 Sur 0 -- -- 92
2020-10-16 07:00:00 6.9 8 Sudeste 11 Sur 0 -- -- 92
2020-10-16 06:00:00 7.4 3 Sur 8 Sur 0 -- -- 89
2020-10-16 05:00:00 8.3 5 Oeste 15 Sur 0 -- -- 86
2020-10-16 04:00:00 8.5 11 Sudeste 14 Sudeste 0 -- -- 87
2020-10-16 03:00:00 8.5 12 Sudeste 16 Sudeste 0 -- -- 86
2020-10-16 02:00:00 8.9 12 Sudeste 14 Sudeste 0 -- -- 86
2020-10-16 01:00:00 9 10 Sudeste 13 Sudeste 0 -- -- 87
2020-10-16 00:00:00 9.2 10 Sudeste 13 Sudeste 0 -- -- 87
2020-10-15 23:00:00 9.9 11 Sudeste 15 Sudeste 0 -- -- 86
2020-10-15 22:00:00 10.7 10 Sudeste 14 Sudeste 0 -- -- 83
2020-10-15 21:00:00 11.3 10 Sudeste 13 Sudeste 0 -- -- 81
2020-10-15 20:00:00 12.9 8 Sudeste 17 Este 0 -- -- 74
2020-10-15 19:00:00 14.7 14 Este 26 Este 0 -- -- 68
2020-10-15 18:00:00 15.5 16 Nordeste 26 Nordeste 0 -- -- 65
2020-10-15 17:00:00 16.2 12 Nordeste 24 Este 0 -- -- 66
2020-10-15 16:00:00 16.2 14 Este 26 Nordeste 0 -- -- 66
2020-10-15 15:00:00 16.1 14 Nordeste 24 Nordeste 0 -- -- 63
2020-10-15 14:00:00 15.9 12 Nordeste 18 Este 0 -- -- 79
2020-10-15 13:00:00 14.8 4 Noroeste 12 Oeste 0 -- -- 85
2020-10-15 12:00:00 13.7 9 Oeste 18 Oeste 1 -- -- 92
2020-10-15 11:00:00 13.3 5 Sur 15 Oeste 0.4 -- -- 92
2020-10-15 10:00:00 11.6 10 Sur 21 Sudoeste 2.4 -- -- 92
2020-10-15 09:00:00 11.8 8 Sur 18 Oeste 0 -- -- 88
2020-10-15 08:00:00 12.4 12 Oeste 16 Oeste 0 -- -- 87
2020-10-15 07:00:00 12.1 10 Oeste 15 Oeste 0 -- -- 90
2020-10-15 06:00:00 11.2 6 Sudoeste 11 Sudoeste 0 -- -- 95
2020-10-15 05:00:00 11.6 5 Sur 11 Sudeste 0 -- -- 95
2020-10-15 04:00:00 11.9 7 Sur 15 Sudeste 0.2 -- -- 95
2020-10-15 03:00:00 11.8 6 Sur 14 Sudoeste 0 -- -- 94
2020-10-15 02:00:00 11.9 6 Sudoeste 16 Sur 2 -- -- 94
2020-10-15 01:00:00 11.9 12 Sur 22 Sudeste 4.8 -- -- 93
2020-10-15 00:00:00 12.9 8 Sudoeste 13 Oeste 0 -- -- 89
2020-10-14 23:00:00 12.3 5 Sur 14 Sudeste 0.6 -- -- 91
2020-10-14 22:00:00 12.8 5 Nordeste 18 Nordeste 0 -- -- 87
2020-10-14 21:00:00 12.7 4 Sudoeste 13 Oeste 0 -- -- 90
2020-10-14 20:00:00 13.5 9 Oeste 24 Norte 0 -- -- 86
2020-10-14 19:00:00 14.1 13 Noroeste 29 Norte 0 -- -- 82
2020-10-14 18:00:00 15.2 11 Noroeste 23 Oeste 0 -- -- 75
2020-10-14 17:00:00 16 11 Noroeste 18 Noroeste 0 -- -- 72
2020-10-14 16:00:00 15.9 13 Noroeste 21 Noroeste 0 -- -- 69
2020-10-14 15:00:00 15.3 12 Noroeste 23 Noroeste 0 -- -- 67
2020-10-14 14:00:00 13.8 11 Oeste 32 Noroeste 0 -- -- 80
2020-10-14 13:00:00 13.5 11 Noroeste 30 Noroeste 0.2 -- -- 85
2020-10-14 12:00:00 15 11 Oeste 21 Oeste 0 -- -- 83
2020-10-14 11:00:00 13.3 10 Oeste 18 Oeste 0 -- -- 92
2020-10-14 10:00:00 11.9 5 Noroeste 22 Oeste 2.2 -- -- 95
2020-10-14 09:00:00 11.7 12 Oeste 30 Oeste 5 -- -- 94
2020-10-14 08:00:00 11.6 10 Oeste 23 Oeste 3.8 -- -- 92
2020-10-14 07:00:00 11.7 5 Oeste 15 Oeste 0 -- -- 90
2020-10-14 06:00:00 12 4 Sudoeste 16 Oeste 0.8 -- -- 91
2020-10-14 05:00:00 12.2 7 Oeste 22 Noroeste 0 -- -- 88
2020-10-14 04:00:00 12.9 15 Noroeste 26 Noroeste 0 -- -- 82
2020-10-14 03:00:00 12.6 11 Noroeste 22 Noroeste 0 -- -- 89
2020-10-14 02:00:00 12 8 Oeste 17 Sudoeste 4.2 -- -- 92
2020-10-14 01:00:00 11.9 7 Sudoeste 21 Oeste 0.6 -- -- 91
2020-10-14 00:00:00 12.2 12 Oeste 22 Oeste 0 -- -- 90
2020-10-13 23:00:00 12.1 13 Oeste 23 Oeste 0 -- -- 89
2020-10-13 22:00:00 12.1 11 Oeste 18 Oeste 0 -- -- 87
2020-10-13 21:00:00 12.2 10 Oeste 21 Oeste 0.6 -- -- 90
2020-10-13 20:00:00 12.6 9 Oeste 20 Oeste 0.4 -- -- 88
2020-10-13 19:00:00 13.4 12 Oeste 23 Sudoeste 0 -- -- 85
2020-10-13 18:00:00 12.8 15 Oeste 36 Oeste 0.2 -- -- 91
2020-10-13 17:00:00 13.3 15 Noroeste 33 Noroeste 0.4 -- -- 92
2020-10-13 16:00:00 15.1 10 Oeste 26 Noroeste 0 -- -- 77
2020-10-13 15:00:00 15.1 7 Noroeste 18 Noroeste 0.2 -- -- 87
2020-10-13 14:00:00 15 12 Oeste 33 Oeste 0.2 -- -- 85
2020-10-13 13:00:00 14.2 13 Noroeste 25 Noroeste 0.4 -- -- 89
2020-10-13 12:00:00 15 9 Sudoeste 18 Oeste 0 -- -- 80
2020-10-13 11:00:00 14.1 6 Sudoeste 17 Oeste 0 -- -- 90
2020-10-13 10:00:00 13.4 8 Sudoeste 19 Oeste 0.4 -- -- 94
2020-10-13 09:00:00 13.5 7 Oeste 13 Oeste 0 -- -- 97
2020-10-13 08:00:00 13.8 8 Sudoeste 15 Oeste 0.2 -- -- 97
2020-10-13 07:00:00 13.9 10 Oeste 19 Oeste 0 -- -- 97
2020-10-13 06:00:00 14.1 10 Noroeste 19 Noroeste 0.2 -- -- 98
2020-10-13 05:00:00 14.6 10 Noroeste 23 Norte 0.2 -- -- 97
2020-10-13 04:00:00 15.3 12 Noroeste 23 Noroeste 1 -- -- 98
2020-10-13 03:00:00 16 8 Oeste 16 Noroeste 2.2 -- -- 98
2020-10-13 02:00:00 16.3 4 Oeste 8 Oeste 1.2 -- -- 95
2020-10-13 01:00:00 -- -- -- -- -- -- -- -- --
2020-10-13 00:00:00 17.1 5 Noroeste 12 Noroeste 0 -- -- 90
2020-10-12 23:00:00 17.3 7 Sudoeste 16 Sudoeste 0 -- -- 88
2020-10-12 22:00:00 17.1 6 Sudoeste 12 Sudoeste 0 -- -- 90
2020-10-12 21:00:00 16.6 6 Sudoeste 13 Sur 0 -- -- 94
2020-10-12 20:00:00 16.1 10 Sur 17 Sur 0.2 -- -- 94
2020-10-12 19:00:00 16.4 7 Sur 13 Sudoeste 0.2 -- -- 93
2020-10-12 18:00:00 -- -- -- -- -- -- -- -- --
2020-10-12 17:00:00 17 9 Sudoeste 28 Sur 0 -- -- 89
2020-10-12 16:00:00 16.2 21 Sur 30 Sur 0 -- -- 89
2020-10-12 15:00:00 16 16 Sur 23 Sur 0 -- -- 90
2020-10-12 14:00:00 16.6 7 Sur 17 Sudoeste 0 -- -- 84
2020-10-12 13:00:00 17.1 9 Sudoeste 17 Oeste 0 -- -- 72
2020-10-12 12:00:00 15.9 4 Sudeste 20 Sur 0 -- -- 71
2020-10-12 11:00:00 14.7 9 Sudeste 12 Sudeste 0 -- -- 79
2020-10-12 10:00:00 12.8 4 Sur 10 Sur 0 -- -- 88
2020-10-12 09:00:00 11.7 8 Sur 14 Sur 0 -- -- 87
2020-10-12 08:00:00 11.8 9 Sur 15 Sur 0 -- -- 86
2020-10-12 07:00:00 10.9 12 Sur 14 Sudeste 0 -- -- 90
2020-10-12 06:00:00 10.7 9 Sur 13 Sur 0 -- -- 92
2020-10-12 05:00:00 10.1 9 Sur 13 Sudeste 0 -- -- 92
2020-10-12 04:00:00 -- -- -- -- -- -- -- -- --
2020-10-12 03:00:00 11 5 Sur 7 Sudeste 0 -- -- 89
2020-10-12 02:00:00 12 3 Sudeste 7 Sur 0 -- -- 88
2020-10-12 01:00:00 13 6 Sudeste 9 Sudeste 0 -- -- 83
2020-10-12 00:00:00 13 4 Sudeste 7 Sudeste 0 -- -- 82
2020-10-11 23:00:00 13.8 4 Nordeste 15 Nordeste 0 -- -- 72
2020-10-11 22:00:00 14.5 8 Nordeste 20 Norte 0 -- -- 70
2020-10-11 21:00:00 -- -- -- -- -- -- -- -- --
2020-10-11 20:00:00 -- -- -- -- -- -- -- -- --
2020-10-11 19:00:00 15.3 4 Norte 12 Nordeste 0 -- -- 70
2020-10-11 18:00:00 15.9 5 Norte 12 Norte 0 -- -- 65
2020-10-11 17:00:00 15.8 7 Norte 20 Norte 0 -- -- 68
2020-10-11 16:00:00 16.2 7 Norte 14 Norte 0 -- -- 60
2020-10-11 15:00:00 16.4 6 Nordeste 17 Este 0 -- -- 60
2020-10-11 14:00:00 15.9 9 Este 18 Nordeste 0 -- -- 64
2020-10-11 13:00:00 15.9 13 Nordeste 19 Este 0 -- -- 64
2020-10-11 12:00:00 15.4 9 Nordeste 21 Nordeste 0 -- -- 60
2020-10-11 11:00:00 14.9 8 Este 19 Este 0 -- -- 61
2020-10-11 10:00:00 14.5 8 Norte 26 Norte 0 -- -- 61
2020-10-11 09:00:00 14 9 Nordeste 22 Nordeste 0 -- -- 64
2020-10-11 08:00:00 14.1 10 Nordeste 21 Nordeste 0 -- -- 66
2020-10-11 07:00:00 13.1 4 Este 13 Sudeste 0 -- -- 82
2020-10-11 06:00:00 13.1 6 Sudeste 12 Sudeste 0 -- -- 82
2020-10-11 05:00:00 14 8 Este 21 Nordeste 0 -- -- 72
2020-10-11 04:00:00 14.1 9 Nordeste 23 Nordeste 0 -- -- 71
2020-10-11 03:00:00 14.3 11 Nordeste 26 Nordeste 0 -- -- 67
2020-10-11 02:00:00 14.3 13 Nordeste 29 Nordeste 0 -- -- 71
2020-10-11 01:00:00 14.7 13 Nordeste 24 Nordeste 0 -- -- 76
2020-10-11 00:00:00 15 13 Nordeste 28 Nordeste 0 -- -- 74
2020-10-10 23:00:00 15 13 Nordeste 25 Norte 0 -- -- 74
2020-10-10 22:00:00 15 10 Nordeste 23 Nordeste 0 -- -- 79
2020-10-10 21:00:00 14.9 13 Nordeste 23 Nordeste 0 -- -- 77
2020-10-10 20:00:00 15.2 13 Nordeste 28 Nordeste 0 -- -- 83
2020-10-10 19:00:00 15.9 14 Nordeste 28 Nordeste 0 -- -- 81
2020-10-10 18:00:00 16.5 10 Nordeste 24 Nordeste 0 -- -- 77
2020-10-10 17:00:00 16.9 9 Nordeste 18 Nordeste 0 -- -- 78
2020-10-10 16:00:00 16.5 6 Norte 17 Norte 0 -- -- 82
2020-10-10 15:00:00 17.6 9 Nordeste 19 Este 0 -- -- 78
2020-10-10 14:00:00 17 10 Nordeste 19 Este 0 -- -- 77
2020-10-10 13:00:00 16.6 10 Nordeste 16 Este 0 -- -- 80
2020-10-10 12:00:00 15.1 6 Este 12 Nordeste 0 -- -- 88
2020-10-10 11:00:00 14.1 4 Sudeste 10 Este 0 -- -- 93
2020-10-10 10:00:00 13.3 7 Sudeste 14 Sudeste 0 -- -- 95
2020-10-10 09:00:00 12.8 9 Sudeste 15 Este 0 -- -- 97
2020-10-10 08:00:00 12.9 8 Este 18 Nordeste 0.4 -- -- 97
2020-10-10 07:00:00 13.2 10 Nordeste 18 Nordeste 1.4 -- -- 98
2020-10-10 06:00:00 13.2 9 Nordeste 24 Nordeste 0.4 -- -- 98
2020-10-10 05:00:00 13.3 14 Nordeste 34 Nordeste 0.8 -- -- 98
2020-10-10 04:00:00 13.6 20 Nordeste 35 Nordeste 1.4 -- -- 97
2020-10-10 03:00:00 14.1 20 Nordeste 39 Nordeste 0.4 -- -- 97
2020-10-10 02:00:00 14.8 22 Nordeste 44 Norte 0.8 -- -- 97
2020-10-10 01:00:00 16.6 8 Norte 17 Norte 0 -- -- 95
2020-10-10 00:00:00 16.8 0 Calma -- -- 0 -- -- 93
2020-10-09 23:00:00 16.8 0 Calma 4 Norte 0 -- -- 92
2020-10-09 22:00:00 17.2 0 Calma 6 Este 0 -- -- 89
2020-10-09 21:00:00 17.6 5 Este 8 Nordeste 0 -- -- 86
2020-10-09 20:00:00 17.8 3 Nordeste 6 Nordeste 0 -- -- 85
2020-10-09 19:00:00 18.2 4 Nordeste 6 Nordeste 0 -- -- 83
2020-10-09 18:00:00 18.6 4 Norte 9 Norte 0 -- -- 81
2020-10-09 17:00:00 18.9 4 Norte 12 Norte 0 -- -- 82
2020-10-09 16:00:00 19.4 5 Norte 12 Norte 0 -- -- 81
2020-10-09 15:00:00 19.6 6 Noroeste 13 Oeste 0 -- -- 74
2020-10-09 14:00:00 20.7 8 Noroeste 14 Sudeste 0 -- -- 69
2020-10-09 13:00:00 21.5 10 Sur 15 Sur 0 -- -- 66
2020-10-09 12:00:00 20 12 Sur 18 Sudeste 0 -- -- 73
2020-10-09 11:00:00 18.1 8 Sur 22 Sur 0 -- -- 80
2020-10-09 10:00:00 15.8 16 Sur 27 Sur 0 -- -- 86
2020-10-09 09:00:00 14.2 14 Sur 18 Sur 0 -- -- 93
2020-10-09 08:00:00 13.6 4 Sur 12 Sur 0 -- -- 95
2020-10-09 07:00:00 13.4 4 Sur 14 Sur 0 -- -- 98
2020-10-09 06:00:00 13.2 7 Sur 10 Sudeste 0 -- -- 98
2020-10-09 05:00:00 13.2 9 Sur 10 Sur 0 -- -- 98
2020-10-09 04:00:00 13 3 Sur 9 Sur 0 -- -- 97
2020-10-09 03:00:00 13.5 4 Sur 10 Sur 0 -- -- 97
2020-10-09 02:00:00 14.1 6 Sur 8 Sur 0 -- -- 97
2020-10-09 01:00:00 13.7 6 Oeste 7 Oeste 0 -- -- 96
2020-10-09 00:00:00 13.9 2 Sudoeste 8 Sur 0 -- -- 95
2020-10-08 23:00:00 14.8 5 Sur 8 Sur 0 -- -- 93
2020-10-08 22:00:00 16.3 2 Sur 4 Oeste 0 -- -- 92
2020-10-08 21:00:00 17 0 Calma 6 Sur 0 -- -- 90
2020-10-08 20:00:00 17.7 0 Calma 5 Norte 0 -- -- 89
2020-10-08 19:00:00 17.8 3 Norte 10 Norte 0 -- -- 87
2020-10-08 18:00:00 18.1 4 Norte 14 Norte 0 -- -- 86
2020-10-08 17:00:00 18.6 7 Norte 14 Noroeste 0 -- -- 86
2020-10-08 16:00:00 18.5 7 Norte 14 Nordeste 0 -- -- 84
2020-10-08 15:00:00 19.2 7 Norte 13 Noroeste 0 -- -- 82
2020-10-08 14:00:00 19.1 4 Noroeste 9 Norte 0 -- -- 79
2020-10-08 13:00:00 18.3 5 Noroeste 10 Norte 0 -- -- 81
2020-10-08 12:00:00 17.8 3 Norte 6 Nordeste 0 -- -- 82
2020-10-08 11:00:00 17.4 2 Nordeste 4 Sudeste 0 -- -- 85
2020-10-08 10:00:00 16.2 0 Calma 8 Oeste 0 -- -- 93
2020-10-08 09:00:00 15.6 6 Oeste 7 Oeste 0 -- -- 95
2020-10-08 08:00:00 15.6 4 Sur 8 Sudeste 0 -- -- 94
2020-10-08 07:00:00 15.7 5 Sudeste 8 Sudeste 0 -- -- 94
2020-10-08 06:00:00 15.5 2 Sur 8 Sur 0 -- -- 93
2020-10-08 05:00:00 15.6 5 Sur 6 Sur 0 -- -- 92
2020-10-08 04:00:00 15.7 0 Calma 4 Sur 0 -- -- 94
2020-10-08 03:00:00 15.4 0 Calma 4 Sur 0 -- -- 94
2020-10-08 02:00:00 14.6 4 Sur 10 Sur 0 -- -- 93
2020-10-08 01:00:00 15.7 7 Sur 8 Sudeste 0 -- -- 90
2020-10-08 00:00:00 16.9 4 Sur 9 Sudeste 0 -- -- 89
2020-10-07 23:00:00 17.1 3 Sur 6 Sur 0 -- -- 88
2020-10-07 22:00:00 17.6 4 Sudeste 6 Sur 0 -- -- 88
2020-10-07 21:00:00 18 4 Este 6 Este 0 -- -- 84
2020-10-07 20:00:00 18.4 3 Norte 6 Noroeste 0 -- -- 83
2020-10-07 19:00:00 18.8 3 Noroeste 9 Norte 0 -- -- 81
2020-10-07 18:00:00 19.5 5 Norte 15 Noroeste 0 -- -- 80
2020-10-07 17:00:00 19.8 7 Noroeste 14 Noroeste 0 -- -- 78
2020-10-07 16:00:00 19.7 9 Noroeste 22 Noroeste 0 -- -- 82
2020-10-07 15:00:00 20.6 5 Noroeste 12 Norte 0 -- -- 74
2020-10-07 14:00:00 20.8 5 Sudeste 13 Sudeste 0 -- -- 76
2020-10-07 13:00:00 18.7 10 Sur 20 Oeste 0 -- -- 87
2020-10-07 12:00:00 18.7 10 Oeste 17 Sudoeste 0 -- -- 86
2020-10-07 11:00:00 17.9 9 Oeste 21 Noroeste 0 -- -- 90
2020-10-07 10:00:00 18.3 5 Oeste 11 Oeste 0 -- -- 86
2020-10-07 09:00:00 17.8 5 Oeste 11 Oeste 0 -- -- 91
2020-10-07 08:00:00 18.4 7 Oeste 13 Oeste 0 -- -- 85
2020-10-07 07:00:00 18.5 7 Sur 13 Sudoeste 0 -- -- 83
2020-10-07 06:00:00 18.5 7 Sur 19 Sur 0 -- -- 83
2020-10-07 05:00:00 18.7 15 Sur 28 Sur 0 -- -- 81
2020-10-07 04:00:00 18.6 21 Sur 37 Sur 0 -- -- 81
2020-10-07 03:00:00 18.6 20 Sur 38 Sur 0 -- -- 80
2020-10-07 02:00:00 18.5 21 Sur 37 Sur 0 -- -- 80
2020-10-07 01:00:00 18.4 23 Sur 43 Sur 0 -- -- 81
2020-10-07 00:00:00 18.9 28 Sur 49 Sur 0 -- -- 78
2020-10-06 23:00:00 18.9 30 Sur 50 Sur 0 -- -- 79
2020-10-06 22:00:00 19.4 21 Sur 35 Sur 0 -- -- 76
2020-10-06 21:00:00 20.2 18 Sudoeste 41 Sudoeste 0 -- -- 71
2020-10-06 20:00:00 20.7 14 Sudoeste 36 Sudoeste 0 -- -- 69
2020-10-06 19:00:00 21.2 21 Sudoeste 37 Sur 0 -- -- 68
2020-10-06 18:00:00 21.5 10 Sudoeste 40 Sudoeste 0 -- -- 67
2020-10-06 17:00:00 22.3 21 Oeste 48 Oeste 0 -- -- 68
2020-10-06 16:00:00 21.9 11 Sudoeste 30 Noroeste 0 -- -- 76
2020-10-06 15:00:00 23 19 Oeste 38 Sudoeste 0 -- -- 70
2020-10-06 14:00:00 22.4 23 Sudoeste 44 Oeste 0 -- -- 71
2020-10-06 13:00:00 23.4 19 Sudoeste 40 Sudoeste 0 -- -- 70
2020-10-06 12:00:00 22 18 Sudoeste 38 Sudoeste 0 -- -- 72
2020-10-06 11:00:00 21.4 21 Sudoeste 42 Oeste 0 -- -- 75
2020-10-06 10:00:00 19.3 12 Sudoeste 32 Sudoeste 0 -- -- 80
2020-10-06 09:00:00 19.1 15 Sur 27 Sur 0 -- -- 80
2020-10-06 08:00:00 18.8 10 Sur 24 Sudoeste 0 -- -- 81
2020-10-06 07:00:00 19.4 10 Sur 28 Sudoeste 0 -- -- 78
2020-10-06 06:00:00 19 15 Sudoeste 40 Sudoeste 0 -- -- 80
2020-10-06 05:00:00 18.8 15 Sur 33 Sur 0 -- -- 81
2020-10-06 04:00:00 18.8 17 Sur 30 Sur 0 -- -- 81
2020-10-06 03:00:00 18.5 8 Sur 22 Sur 0 -- -- 83
2020-10-06 02:00:00 18.6 10 Sur 31 Sudoeste 0 -- -- 82
2020-10-06 01:00:00 18.3 19 Sur 36 Sudoeste 0 -- -- 83
2020-10-06 00:00:00 18.2 20 Sur 35 Sur 0 -- -- 83
2020-10-05 23:00:00 18.2 17 Sur 26 Sudoeste 0 -- -- 82
2020-10-05 22:00:00 18.5 14 Sudoeste 48 Sur 0 -- -- 79
2020-10-05 21:00:00 18.2 29 Sur 51 Sur 0 -- -- 80
2020-10-05 20:00:00 18.4 41 Sur 59 Sur 0 -- -- 77
2020-10-05 19:00:00 18.5 28 Sur 54 Sur 0 -- -- 76
2020-10-05 18:00:00 18.1 31 Sur 50 Sur 0 -- -- 77
2020-10-05 17:00:00 18.3 24 Sur 45 Sur 0 -- -- 75
2020-10-05 16:00:00 19.3 14 Sudoeste 35 Sur 0 -- -- 70
2020-10-05 15:00:00 18.8 19 Sudoeste 36 Sudoeste 0 -- -- 70
2020-10-05 14:00:00 19.7 13 Sudoeste 34 Sudoeste 0 -- -- 66
2020-10-05 13:00:00 18.9 18 Sudoeste 33 Sudoeste 0 -- -- 64
2020-10-05 12:00:00 17.4 19 Sudoeste 33 Sudoeste 0 -- -- 69
2020-10-05 11:00:00 16.1 17 Sur 29 Sur 0 -- -- 74
2020-10-05 10:00:00 14.4 17 Sur 32 Sur 0 -- -- 79
2020-10-05 09:00:00 13.3 16 Sur 27 Sudoeste 0 -- -- 81
2020-10-05 08:00:00 12.8 17 Sur 25 Sur 0 -- -- 82
2020-10-05 07:00:00 13.2 13 Sur 23 Sur 0 -- -- 80
2020-10-05 06:00:00 13.5 11 Sudoeste 23 Sudoeste 0.2 -- -- 78
2020-10-05 05:00:00 13.3 10 Sudoeste 29 Sudoeste 0 -- -- 80
2020-10-05 04:00:00 12.6 8 Sudoeste 26 Oeste 0.2 -- -- 86
2020-10-05 03:00:00 13.5 12 Sudoeste 34 Sudoeste 0 -- -- 75
2020-10-05 02:00:00 13.7 14 Sudoeste 39 Sudoeste 0 -- -- 75
2020-10-05 01:00:00 13.6 16 Sudoeste 31 Sudoeste 0 -- -- 76
2020-10-05 00:00:00 14 15 Sudoeste 35 Sudoeste 0 -- -- 72
2020-10-04 23:00:00 13.3 14 Sudoeste 35 Sudoeste 0 -- -- 78
2020-10-04 22:00:00 13.2 18 Sudoeste 35 Sudoeste 0 -- -- 78
2020-10-04 21:00:00 14 18 Sudoeste 39 Sudoeste 0 -- -- 72
2020-10-04 20:00:00 14.3 18 Sudoeste 36 Oeste 0 -- -- 73
2020-10-04 19:00:00 15.3 17 Oeste 28 Oeste 0 -- -- 71
2020-10-04 18:00:00 16.2 19 Oeste 36 Oeste 0 -- -- 64
2020-10-04 17:00:00 16 18 Oeste 40 Oeste 0 -- -- 73
2020-10-04 16:00:00 15.6 21 Oeste 36 Oeste 0.4 -- -- 78
2020-10-04 15:00:00 14.4 19 Sudoeste 43 Oeste 0.4 -- -- 81
2020-10-04 14:00:00 15.6 26 Oeste 42 Oeste 1.4 -- -- 79
2020-10-04 13:00:00 14.8 14 Oeste 41 Oeste 1 -- -- 87
2020-10-04 12:00:00 15.4 30 Oeste 49 Oeste 0.4 -- -- 73
2020-10-04 11:00:00 13.4 22 Oeste 43 Oeste 1.4 -- -- 83
2020-10-04 10:00:00 12.8 15 Sudoeste 38 Sudoeste 1.4 -- -- 86
2020-10-04 09:00:00 14.6 23 Oeste 45 Oeste 0 -- -- 70
2020-10-04 08:00:00 14.6 26 Oeste 43 Oeste 0 -- -- 70
2020-10-04 07:00:00 14 15 Oeste 44 Oeste 0 -- -- 73
2020-10-04 06:00:00 14.3 20 Oeste 33 Oeste 0 -- -- 73
2020-10-04 05:00:00 14.4 20 Oeste 42 Sudoeste 0 -- -- 79
2020-10-04 04:00:00 13.6 20 Sudoeste 53 Oeste 0.6 -- -- 89
2020-10-04 03:00:00 14.4 27 Sudoeste 52 Sur 0 -- -- 78
2020-10-04 02:00:00 14.4 29 Sur 48 Sur 0 -- -- 77
2020-10-04 01:00:00 14.4 28 Sur 50 Sudoeste 0 -- -- 76
2020-10-04 00:00:00 14.3 25 Sur 44 Sudoeste 0 -- -- 75
2020-10-03 23:00:00 14.6 18 Sudoeste 40 Sudoeste 0 -- -- 74
2020-10-03 22:00:00 14.8 24 Sudoeste 46 Sudoeste 0 -- -- 72
2020-10-03 21:00:00 14.3 17 Sudoeste 36 Sudoeste 0 -- -- 73
2020-10-03 20:00:00 14.8 17 Sudoeste 33 Oeste 0 -- -- 75
2020-10-03 19:00:00 16 21 Oeste 41 Sudoeste 0 -- -- 66
2020-10-03 18:00:00 16.8 24 Oeste 38 Oeste 0 -- -- 60
2020-10-03 17:00:00 16.5 17 Oeste 39 Sudoeste 0 -- -- 66
2020-10-03 16:00:00 17.4 21 Oeste 43 Oeste 0 -- -- 60
2020-10-03 15:00:00 16.8 15 Oeste 37 Oeste 0 -- -- 66
2020-10-03 14:00:00 16.3 16 Sudoeste 45 Sudoeste 0 -- -- 68
2020-10-03 13:00:00 14.3 17 Sudoeste 46 Oeste 0 -- -- 73
2020-10-03 12:00:00 13.7 21 Sudoeste 35 Oeste 0.2 -- -- 79
2020-10-03 11:00:00 12.8 13 Sudoeste 36 Sudoeste 1.2 -- -- 84
2020-10-03 10:00:00 13.1 16 Sudoeste 31 Oeste 0 -- -- 74
2020-10-03 09:00:00 12.8 23 Oeste 37 Sudoeste 0 -- -- 77
2020-10-03 08:00:00 12.3 19 Sudoeste 36 Sudoeste 0.2 -- -- 79
2020-10-03 07:00:00 11.6 16 Sudoeste 31 Oeste 1.6 -- -- 84
2020-10-03 06:00:00 12.2 17 Sudoeste 37 Oeste 0.2 -- -- 80
2020-10-03 05:00:00 12 23 Oeste 49 Oeste 1.4 -- -- 77
2020-10-03 04:00:00 11.7 20 Oeste 40 Sudoeste 2.2 -- -- 83
2020-10-03 03:00:00 11.7 20 Oeste 48 Oeste 1.2 -- -- 84
2020-10-03 02:00:00 13 25 Oeste 47 Oeste 0.2 -- -- 78
2020-10-03 01:00:00 11.9 24 Oeste 50 Oeste 1.2 -- -- 80
2020-10-03 00:00:00 12.6 22 Oeste 39 Oeste 0.8 -- -- 79
2020-10-02 23:00:00 13.4 15 Oeste 46 Noroeste 0 -- -- 73
2020-10-02 22:00:00 13.5 22 Noroeste 63 Noroeste 2.4 -- -- 74
2020-10-02 21:00:00 14.1 29 Noroeste 53 Noroeste 0.2 -- -- 67
2020-10-02 20:00:00 12.3 23 Oeste 42 Oeste 1.4 -- -- 85
2020-10-02 19:00:00 12.6 21 Oeste 40 Oeste 0.8 -- -- 84
2020-10-02 18:00:00 15.5 19 Oeste 44 Oeste 0 -- -- 65
2020-10-02 17:00:00 14.8 22 Noroeste 50 Oeste 0.2 -- -- 70
2020-10-02 16:00:00 13.9 27 Oeste 57 Oeste 0.2 -- -- 77
2020-10-02 15:00:00 13.2 23 Oeste 42 Oeste 0 -- -- 78
2020-10-02 14:00:00 10.7 24 Oeste 46 Noroeste 4.4 -- -- 89
2020-10-02 13:00:00 13.3 26 Oeste 48 Oeste 0.2 -- -- 72
2020-10-02 12:00:00 13.1 33 Oeste 55 Oeste 0.2 -- -- 75
2020-10-02 11:00:00 11.6 23 Oeste 41 Oeste 0 -- -- 73
2020-10-02 10:00:00 10.1 21 Noroeste 49 Oeste 0.4 -- -- 80
2020-10-02 09:00:00 9.6 26 Oeste 66 Oeste 1.4 -- -- 87
2020-10-02 08:00:00 10.6 18 Oeste 85 Oeste 2.2 -- -- 86
2020-10-02 07:00:00 10.8 27 Oeste 50 Oeste 4.4 -- -- 92
2020-10-02 06:00:00 11.4 24 Noroeste 49 Oeste 1.4 -- -- 92
2020-10-02 05:00:00 13 28 Oeste 53 Oeste 1.2 -- -- 92
2020-10-02 04:00:00 14.2 16 Oeste 46 Oeste 0.4 -- -- 94
2020-10-02 03:00:00 14.1 25 Oeste 44 Noroeste 4.4 -- -- 96
2020-10-02 02:00:00 14.1 30 Noroeste 58 Noroeste 5.4 -- -- 97
2020-10-02 01:00:00 16.9 18 Oeste 57 Sudoeste 2.2 -- -- 90
2020-10-02 00:00:00 15.9 23 Sudoeste 59 Sudoeste 3.8 -- -- 89
2020-10-01 23:00:00 16 37 Sudoeste 76 Sudoeste 0.2 -- -- 83
2020-10-01 22:00:00 16.2 36 Sudoeste 67 Sudoeste 0 -- -- 78
2020-10-01 21:00:00 15.6 33 Sur 78 Sur 0 -- -- 80
2020-10-01 20:00:00 16.4 35 Sur 74 Sur 0 -- -- 73
2020-10-01 19:00:00 17.8 32 Sur 78 Sur 0 -- -- 64
2020-10-01 18:00:00 18.1 24 Sudoeste 55 Sudoeste 0 -- -- 64
2020-10-01 17:00:00 18.5 19 Sudoeste 46 Sudoeste 0 -- -- 66
2020-10-01 16:00:00 19.5 24 Oeste 47 Oeste 0 -- -- 60
2020-10-01 15:00:00 18.6 19 Sudoeste 43 Oeste 0 -- -- 64
2020-10-01 14:00:00 18.8 22 Sudoeste 37 Sudoeste 0 -- -- 63
2020-10-01 13:00:00 18.1 15 Sudoeste 27 Sudoeste 0 -- -- 69
2020-10-01 12:00:00 17.1 15 Sudoeste 30 Sur 0 -- -- 71
2020-10-01 11:00:00 15.5 19 Sur 26 Sur 0 -- -- 86
2020-10-01 10:00:00 15.3 16 Oeste 29 Oeste 0 -- -- 81
2020-10-01 09:00:00 14.8 13 Oeste 23 Sudoeste 0 -- -- 81
2020-10-01 08:00:00 14 17 Sudoeste 30 Sudoeste 0.4 -- -- 93
2020-10-01 07:00:00 14.2 6 Oeste 19 Oeste 0 -- -- 97
2020-10-01 06:00:00 14.4 14 Oeste 23 Oeste 1 -- -- 96
2020-10-01 05:00:00 14.5 12 Oeste 27 Oeste 3.6 -- -- 96
2020-10-01 04:00:00 15.6 2 Nordeste 22 Sur 0 -- -- 88
2020-10-01 03:00:00 15.7 17 Sur 44 Sur 0.2 -- -- 87
2020-10-01 02:00:00 15.6 29 Sur 59 Sur 0 -- -- 83
2020-10-01 01:00:00 15.6 40 Sur 58 Sur 0 -- -- 84
2020-10-01 00:00:00 15.7 35 Sur 62 Sur 0.8 -- -- 83